This is the latest recevied weather packets stored in our database for station/object DL4PY-13. If no packets are shown the sender has not sent any weather packets the latest 10 day(s).
| Time | Temp. | Humidity | Pressure | Rain* | Wind** | Luminosity | Snow |
|---|---|---|---|---|---|---|---|
| 1778060516 | 12.22° C | 92% | 1006.6 hPa | 0.25 mm | - | - | - |
| 1778059617 | 12.78° C | 92% | 1006.4 hPa | 0 mm | - | - | - |
| 1778059328 | 12.78° C | 92% | 1006.3 hPa | 0 mm | - | - | - |
| 1778059028 | 12.78° C | 92% | 1006.3 hPa | 0 mm | - | - | - |
| 1778058717 | 12.22° C | 92% | 1006.3 hPa | 0 mm | - | - | - |
| 1778057826 | 12.22° C | 93% | 1006.2 hPa | 0 mm | - | - | - |
| 1778057816 | 12.22° C | 93% | 1006.2 hPa | 0 mm | - | - | - |
| 1778057227 | 12.22° C | 93% | 1006.2 hPa | 0 mm | - | - | - |
| 1778056927 | 11.67° C | 93% | 1006.2 hPa | 0 mm | - | - | - |
| 1778056917 | 11.67° C | 93% | 1006.2 hPa | 0 mm | - | - | - |
| 1778056325 | 11.67° C | 93% | 1006.2 hPa | 0 mm | - | - | - |
| 1778056017 | 12.22° C | 94% | 1006.1 hPa | 0 mm | - | - | - |
| 1778055727 | 11.67° C | 94% | 1006.2 hPa | 0 mm | - | - | - |
| 1778055426 | 11.67° C | 93% | 1006.2 hPa | 0 mm | - | - | - |
| 1777913718 | 15.56° C | 72% | 1014.6 hPa | 0 mm | - | - | - |
| 1777913420 | 15.56° C | 71% | 1014.6 hPa | 0 mm | - | - | - |
| 1777913118 | 15.56° C | 71% | 1014.6 hPa | 0 mm | - | - | - |
| 1777912518 | 15.56° C | 73% | 1014.6 hPa | 0 mm | - | - | - |
| 1777912216 | 15.56° C | 73% | 1014.6 hPa | 0 mm | - | - | - |
| 1777911920 | 15.56° C | 73% | 1014.6 hPa | 0 mm | - | - | - |
| 1777911317 | 16.11° C | 73% | 1014.6 hPa | 0 mm | - | - | - |
| 1777911019 | 16.11° C | 73% | 1014.6 hPa | 0 mm | - | - | - |
| 1777910717 | 16.11° C | 71% | 1014.5 hPa | 0 mm | - | - | - |
| 1777910425 | 16.11° C | 72% | 1014.6 hPa | 0 mm | - | - | - |
| 1777909517 | 16.11° C | 71% | 1014.7 hPa | 0 mm | - | - | - |
* Rain latest hour (hover to see other rain measurements)
** Current wind speed in m/s (hover to see current wind gust speed)